Clallam Bay, WA (98326)

1:08 AM PDT on August 27, 2016 (GMT -0700)
| | Change Station

Elev -9999 ft 0.00 °N, 0.00 °E | Updated

Partly Cloudy
Partly Cloudy
57 °F
Feels Like 57 °F
N
8
Wind Variable Wind from WSW
Gusts mph

Today
High -- | Low -- °F
--% Chance of Precip.
Yesterday
High -- | Low -- °F
Precip. -- in
Pressure 29.83 in
Visibility 7.0 miles
Clouds Overcast 300 ft
Dew Point 56 °F
Humidity 94%
Rainfall --
Snow Depth Not available.
6:28 AM 8:07 PM
Waning Crescent, 26% visible
METAR KUIL 270753Z AUTO 22004KT 7SM OVC003 14/14 A2983 RMK AO2 SLP101 T01390139 403000117
Pressure 29.83 in
Visibility 7.0 miles
Clouds Overcast 300 ft
Dew Point 56 °F
Humidity 94%
Rainfall --
Snow Depth Not available.
6:28 AM 8:07 PM
Waning Crescent, 26% visible
METAR KUIL 270753Z AUTO 22004KT 7SM OVC003 14/14 A2983 RMK AO2 SLP101 T01390139 403000117

10-Day Weather Forecast

Almanac

Astronomy

Aug. 27, 2016 Rise Set
Actual Time
Civil Twilight
Nautical Twilight
Astronomical Twilight
Moon
Length of Visible Light
Length of Day
Tomorrow will be .
, % of the Moon is Illuminated

Today's Extremes

State Highs State Lows

Community

WunderPhotos

Upload Photos

1,935,303 photos uploaded!

WunderBlog® & News

Nearby

Air Quality

  Air Quality AQ Index Pollutant
Not available.

Snow Depth

Station Depth Elevation

Earthquake Activity

City Distance Mag. Time & Date
Minimum magnitude displayed is 2.5.

Coastal Water Temperatures

Place Temperature

Stations

Nearby Weather Stations

Station Location Temp. Windchill Dew Point Humidity Wind Precip. Elev Updated Type
                   

Watches & Warnings

There are currently no watches in effect.